sensor_id;sensor_type;location;lat;lon;timestamp;P1;P2;P0
73146;PMS7003;61345;48.922;2.244;2022-10-16T00:01:37;2.25;1.00;1.00
73146;PMS7003;61345;48.922;2.244;2022-10-16T00:04:03;0.00;0.00;0.00
73146;PMS7003;61345;48.922;2.244;2022-10-16T00:06:29;0.75;0.75;0.75
73146;PMS7003;61345;48.922;2.244;2022-10-16T00:08:55;1.00;1.00;0.00
73146;PMS7003;61345;48.922;2.244;2022-10-16T00:11:22;1.00;1.00;1.00
73146;PMS7003;61345;48.922;2.244;2022-10-16T00:13:50;2.25;1.50;1.00
73146;PMS7003;61345;48.922;2.244;2022-10-16T00:16:17;1.75;1.00;1.00
73146;PMS7003;61345;48.922;2.244;2022-10-16T00:18:42;0.50;0.00;0.00
73146;PMS7003;61345;48.922;2.244;2022-10-16T00:21:09;0.00;0.00;0.00
73146;PMS7003;61345;48.922;2.244;2022-10-16T00:23:42;0.75;0.75;0.00
73146;PMS7003;61345;48.922;2.244;2022-10-16T00:26:09;1.00;1.00;1.00
73146;PMS7003;61345;48.922;2.244;2022-10-16T00:28:36;0.00;0.00;0.00
73146;PMS7003;61345;48.922;2.244;2022-10-16T00:31:05;0.00;0.00;0.00
73146;PMS7003;61345;48.922;2.244;2022-10-16T00:33:32;1.00;1.00;0.00
73146;PMS7003;61345;48.922;2.244;2022-10-16T00:35:58;1.00;1.00;1.00
73146;PMS7003;61345;48.922;2.244;2022-10-16T00:38:24;3.00;0.50;0.50
73146;PMS7003;61345;48.922;2.244;2022-10-16T00:40:49;1.25;0.00;0.00
73146;PMS7003;61345;48.922;2.244;2022-10-16T00:45:59;1.00;1.00;0.50
73146;PMS7003;61345;48.922;2.244;2022-10-16T00:48:25;1.00;0.00;0.00
73146;PMS7003;61345;48.922;2.244;2022-10-16T00:50:51;0.50;0.50;0.00
73146;PMS7003;61345;48.922;2.244;2022-10-16T00:53:17;1.00;1.00;1.00
73146;PMS7003;61345;48.922;2.244;2022-10-16T00:55:42;1.00;0.00;0.00
73146;PMS7003;61345;48.922;2.244;2022-10-16T00:58:08;1.00;0.00;0.00
73146;PMS7003;61345;48.922;2.244;2022-10-16T01:00:34;0.00;0.00;0.00
73146;PMS7003;61345;48.922;2.244;2022-10-16T01:03:00;0.50;0.50;0.00
73146;PMS7003;61345;48.922;2.244;2022-10-16T01:05:30;0.25;0.00;0.00
73146;PMS7003;61345;48.922;2.244;2022-10-16T01:08:12;1.75;0.25;0.00
73146;PMS7003;61345;48.922;2.244;2022-10-16T01:10:44;0.00;0.00;0.00
73146;PMS7003;61345;48.922;2.244;2022-10-16T01:13:24;1.00;0.00;0.00
73146;PMS7003;61345;48.922;2.244;2022-10-16T01:15:55;1.00;1.00;1.00
73146;PMS7003;61345;48.922;2.244;2022-10-16T01:20:54;1.00;1.00;0.00
73146;PMS7003;61345;48.922;2.244;2022-10-16T01:26:19;1.25;1.00;0.00
73146;PMS7003;61345;48.922;2.244;2022-10-16T01:31:40;0.50;0.50;0.00
73146;PMS7003;61345;48.922;2.244;2022-10-16T01:34:10;1.50;0.00;0.00
73146;PMS7003;61345;48.922;2.244;2022-10-16T01:36:41;0.00;0.00;0.00
73146;PMS7003;61345;48.922;2.244;2022-10-16T01:39:10;1.00;0.00;0.00
73146;PMS7003;61345;48.922;2.244;2022-10-16T01:41:41;0.75;0.00;0.00
73146;PMS7003;61345;48.922;2.244;2022-10-16T01:44:11;0.00;0.00;0.00
73146;PMS7003;61345;48.922;2.244;2022-10-16T01:46:44;0.00;0.00;0.00
73146;PMS7003;61345;48.922;2.244;2022-10-16T01:49:11;1.25;0.00;0.00
73146;PMS7003;61345;48.922;2.244;2022-10-16T01:51:38;0.00;0.00;0.00
73146;PMS7003;61345;48.922;2.244;2022-10-16T01:54:04;0.00;0.00;0.00
73146;PMS7003;61345;48.922;2.244;2022-10-16T01:56:33;0.00;0.00;0.00
73146;PMS7003;61345;48.922;2.244;2022-10-16T01:59:04;0.00;0.00;0.00
73146;PMS7003;61345;48.922;2.244;2022-10-16T02:01:32;0.00;0.00;0.00
73146;PMS7003;61345;48.922;2.244;2022-10-16T02:04:02;2.50;0.00;0.00
73146;PMS7003;61345;48.922;2.244;2022-10-16T02:06:32;0.00;0.00;0.00
73146;PMS7003;61345;48.922;2.244;2022-10-16T02:08:58;0.00;0.00;0.00
73146;PMS7003;61345;48.922;2.244;2022-10-16T02:11:24;1.00;0.00;0.00
73146;PMS7003;61345;48.922;2.244;2022-10-16T02:13:58;0.00;0.00;0.00
73146;PMS7003;61345;48.922;2.244;2022-10-16T02:16:32;0.00;0.00;0.00
73146;PMS7003;61345;48.922;2.244;2022-10-16T02:19:02;0.00;0.00;0.00
73146;PMS7003;61345;48.922;2.244;2022-10-16T02:21:30;0.00;0.00;0.00
73146;PMS7003;61345;48.922;2.244;2022-10-16T02:24:06;0.00;0.00;0.00
73146;PMS7003;61345;48.922;2.244;2022-10-16T02:26:43;1.00;0.00;0.00
73146;PMS7003;61345;48.922;2.244;2022-10-16T02:29:17;1.00;0.00;0.00
73146;PMS7003;61345;48.922;2.244;2022-10-16T02:31:46;0.00;0.00;0.00
73146;PMS7003;61345;48.922;2.244;2022-10-16T02:34:16;0.00;0.00;0.00
73146;PMS7003;61345;48.922;2.244;2022-10-16T02:36:43;0.00;0.00;0.00
73146;PMS7003;61345;48.922;2.244;2022-10-16T02:39:09;1.50;0.00;0.00
73146;PMS7003;61345;48.922;2.244;2022-10-16T02:41:35;0.00;0.00;0.00
73146;PMS7003;61345;48.922;2.244;2022-10-16T02:44:01;0.00;0.00;0.00
73146;PMS7003;61345;48.922;2.244;2022-10-16T02:46:26;0.00;0.00;0.00
73146;PMS7003;61345;48.922;2.244;2022-10-16T02:48:51;0.00;0.00;0.00
73146;PMS7003;61345;48.922;2.244;2022-10-16T02:51:17;0.00;0.00;0.00
73146;PMS7003;61345;48.922;2.244;2022-10-16T02:53:42;0.00;0.00;0.00
73146;PMS7003;61345;48.922;2.244;2022-10-16T02:56:07;1.00;0.00;0.00
73146;PMS7003;61345;48.922;2.244;2022-10-16T02:58:33;0.75;0.00;0.00
73146;PMS7003;61345;48.922;2.244;2022-10-16T03:00:58;1.00;0.00;0.00
73146;PMS7003;61345;48.922;2.244;2022-10-16T03:03:23;0.00;0.00;0.00
73146;PMS7003;61345;48.922;2.244;2022-10-16T03:05:49;0.00;0.00;0.00
73146;PMS7003;61345;48.922;2.244;2022-10-16T03:08:14;0.00;0.00;0.00
73146;PMS7003;61345;48.922;2.244;2022-10-16T03:10:39;0.00;0.00;0.00
73146;PMS7003;61345;48.922;2.244;2022-10-16T03:13:05;1.00;0.00;0.00
73146;PMS7003;61345;48.922;2.244;2022-10-16T03:15:30;0.00;0.00;0.00
73146;PMS7003;61345;48.922;2.244;2022-10-16T03:17:59;1.00;0.00;0.00
73146;PMS7003;61345;48.922;2.244;2022-10-16T03:20:24;0.00;0.00;0.00
73146;PMS7003;61345;48.922;2.244;2022-10-16T03:22:50;0.00;0.00;0.00
73146;PMS7003;61345;48.922;2.244;2022-10-16T03:25:15;0.00;0.00;0.00
73146;PMS7003;61345;48.922;2.244;2022-10-16T03:27:41;1.75;0.00;0.00
73146;PMS7003;61345;48.922;2.244;2022-10-16T03:30:07;0.00;0.00;0.00
73146;PMS7003;61345;48.922;2.244;2022-10-16T03:32:32;0.00;0.00;0.00
73146;PMS7003;61345;48.922;2.244;2022-10-16T03:34:58;0.00;0.00;0.00
73146;PMS7003;61345;48.922;2.244;2022-10-16T03:37:23;0.50;0.00;0.00
73146;PMS7003;61345;48.922;2.244;2022-10-16T03:39:49;0.00;0.00;0.00
73146;PMS7003;61345;48.922;2.244;2022-10-16T03:42:14;0.00;0.00;0.00
73146;PMS7003;61345;48.922;2.244;2022-10-16T03:44:40;1.00;0.00;0.00
73146;PMS7003;61345;48.922;2.244;2022-10-16T03:47:05;0.00;0.00;0.00
73146;PMS7003;61345;48.922;2.244;2022-10-16T03:49:30;0.00;0.00;0.00
73146;PMS7003;61345;48.922;2.244;2022-10-16T03:51:56;0.00;0.00;0.00
73146;PMS7003;61345;48.922;2.244;2022-10-16T03:54:21;0.00;0.00;0.00
73146;PMS7003;61345;48.922;2.244;2022-10-16T03:56:47;0.00;0.00;0.00
73146;PMS7003;61345;48.922;2.244;2022-10-16T03:59:12;0.00;0.00;0.00
73146;PMS7003;61345;48.922;2.244;2022-10-16T04:01:38;0.00;0.00;0.00
73146;PMS7003;61345;48.922;2.244;2022-10-16T04:04:03;0.00;0.00;0.00
73146;PMS7003;61345;48.922;2.244;2022-10-16T04:06:28;0.50;0.50;0.00
73146;PMS7003;61345;48.922;2.244;2022-10-16T04:08:54;0.00;0.00;0.00
73146;PMS7003;61345;48.922;2.244;2022-10-16T04:11:19;2.00;0.00;0.00
73146;PMS7003;61345;48.922;2.244;2022-10-16T04:13:44;0.00;0.00;0.00
73146;PMS7003;61345;48.922;2.244;2022-10-16T04:16:10;0.00;0.00;0.00
73146;PMS7003;61345;48.922;2.244;2022-10-16T04:18:35;0.00;0.00;0.00
73146;PMS7003;61345;48.922;2.244;2022-10-16T04:21:04;0.00;0.00;0.00
73146;PMS7003;61345;48.922;2.244;2022-10-16T04:23:30;0.00;0.00;0.00
73146;PMS7003;61345;48.922;2.244;2022-10-16T04:25:56;0.00;0.00;0.00
73146;PMS7003;61345;48.922;2.244;2022-10-16T04:28:21;0.00;0.00;0.00
73146;PMS7003;61345;48.922;2.244;2022-10-16T04:30:46;0.00;0.00;0.00
73146;PMS7003;61345;48.922;2.244;2022-10-16T04:33:12;0.00;0.00;0.00
73146;PMS7003;61345;48.922;2.244;2022-10-16T04:35:38;0.50;0.00;0.00
73146;PMS7003;61345;48.922;2.244;2022-10-16T04:38:03;0.00;0.00;0.00
73146;PMS7003;61345;48.922;2.244;2022-10-16T04:40:28;0.00;0.00;0.00
73146;PMS7003;61345;48.922;2.244;2022-10-16T04:42:54;0.00;0.00;0.00
73146;PMS7003;61345;48.922;2.244;2022-10-16T04:45:19;0.00;0.00;0.00
73146;PMS7003;61345;48.922;2.244;2022-10-16T04:47:44;0.00;0.00;0.00
73146;PMS7003;61345;48.922;2.244;2022-10-16T04:50:10;0.00;0.00;0.00
73146;PMS7003;61345;48.922;2.244;2022-10-16T04:52:35;0.00;0.00;0.00
73146;PMS7003;61345;48.922;2.244;2022-10-16T04:55:01;0.75;0.00;0.00
73146;PMS7003;61345;48.922;2.244;2022-10-16T04:57:28;0.00;0.00;0.00
73146;PMS7003;61345;48.922;2.244;2022-10-16T04:59:54;0.00;0.00;0.00
73146;PMS7003;61345;48.922;2.244;2022-10-16T05:02:19;0.00;0.00;0.00
73146;PMS7003;61345;48.922;2.244;2022-10-16T05:04:44;1.50;0.00;0.00
73146;PMS7003;61345;48.922;2.244;2022-10-16T05:07:09;1.00;0.00;0.00
73146;PMS7003;61345;48.922;2.244;2022-10-16T05:09:35;0.00;0.00;0.00
73146;PMS7003;61345;48.922;2.244;2022-10-16T05:12:00;0.00;0.00;0.00
73146;PMS7003;61345;48.922;2.244;2022-10-16T05:14:25;0.00;0.00;0.00
73146;PMS7003;61345;48.922;2.244;2022-10-16T05:16:51;0.00;0.00;0.00
73146;PMS7003;61345;48.922;2.244;2022-10-16T05:19:16;0.00;0.00;0.00
73146;PMS7003;61345;48.922;2.244;2022-10-16T05:21:42;0.00;0.00;0.00
73146;PMS7003;61345;48.922;2.244;2022-10-16T05:24:07;0.00;0.00;0.00
73146;PMS7003;61345;48.922;2.244;2022-10-16T05:26:32;0.00;0.00;0.00
73146;PMS7003;61345;48.922;2.244;2022-10-16T05:28:58;0.25;0.00;0.00
73146;PMS7003;61345;48.922;2.244;2022-10-16T05:31:23;0.00;0.00;0.00
73146;PMS7003;61345;48.922;2.244;2022-10-16T05:33:48;0.00;0.00;0.00
73146;PMS7003;61345;48.922;2.244;2022-10-16T05:36:14;0.00;0.00;0.00
73146;PMS7003;61345;48.922;2.244;2022-10-16T05:38:39;0.00;0.00;0.00
73146;PMS7003;61345;48.922;2.244;2022-10-16T05:41:05;0.00;0.00;0.00
73146;PMS7003;61345;48.922;2.244;2022-10-16T05:43:31;0.00;0.00;0.00
73146;PMS7003;61345;48.922;2.244;2022-10-16T05:46:01;0.00;0.00;0.00
73146;PMS7003;61345;48.922;2.244;2022-10-16T05:48:28;0.00;0.00;0.00
73146;PMS7003;61345;48.922;2.244;2022-10-16T05:51:06;0.25;0.00;0.00
73146;PMS7003;61345;48.922;2.244;2022-10-16T05:53:33;0.00;0.00;0.00
73146;PMS7003;61345;48.922;2.244;2022-10-16T05:55:59;0.00;0.00;0.00
73146;PMS7003;61345;48.922;2.244;2022-10-16T05:58:27;0.00;0.00;0.00
73146;PMS7003;61345;48.922;2.244;2022-10-16T06:00:54;0.00;0.00;0.00
73146;PMS7003;61345;48.922;2.244;2022-10-16T06:03:24;0.00;0.00;0.00
73146;PMS7003;61345;48.922;2.244;2022-10-16T06:05:49;0.00;0.00;0.00
73146;PMS7003;61345;48.922;2.244;2022-10-16T06:08:15;1.00;0.00;0.00
73146;PMS7003;61345;48.922;2.244;2022-10-16T06:10:40;0.00;0.00;0.00
73146;PMS7003;61345;48.922;2.244;2022-10-16T06:13:06;0.00;0.00;0.00
73146;PMS7003;61345;48.922;2.244;2022-10-16T06:15:31;0.50;0.00;0.00
73146;PMS7003;61345;48.922;2.244;2022-10-16T06:17:56;0.50;0.50;0.50
73146;PMS7003;61345;48.922;2.244;2022-10-16T06:20:21;0.00;0.00;0.00
73146;PMS7003;61345;48.922;2.244;2022-10-16T06:22:47;0.00;0.00;0.00
73146;PMS7003;61345;48.922;2.244;2022-10-16T06:25:12;0.00;0.00;0.00
73146;PMS7003;61345;48.922;2.244;2022-10-16T06:27:39;0.00;0.00;0.00
73146;PMS7003;61345;48.922;2.244;2022-10-16T06:30:05;1.00;1.00;0.00
73146;PMS7003;61345;48.922;2.244;2022-10-16T06:32:34;0.50;0.00;0.00
73146;PMS7003;61345;48.922;2.244;2022-10-16T06:35:00;0.00;0.00;0.00
73146;PMS7003;61345;48.922;2.244;2022-10-16T06:37:26;2.75;0.50;0.00
73146;PMS7003;61345;48.922;2.244;2022-10-16T06:39:52;0.50;0.50;0.00
73146;PMS7003;61345;48.922;2.244;2022-10-16T06:42:17;2.00;1.00;1.00
73146;PMS7003;61345;48.922;2.244;2022-10-16T06:44:43;1.25;0.00;0.00
73146;PMS7003;61345;48.922;2.244;2022-10-16T06:47:08;1.00;0.00;0.00
73146;PMS7003;61345;48.922;2.244;2022-10-16T06:49:34;0.25;0.00;0.00
73146;PMS7003;61345;48.922;2.244;2022-10-16T06:52:00;0.00;0.00;0.00
73146;PMS7003;61345;48.922;2.244;2022-10-16T06:54:26;0.00;0.00;0.00
73146;PMS7003;61345;48.922;2.244;2022-10-16T06:56:52;1.00;0.00;0.00
73146;PMS7003;61345;48.922;2.244;2022-10-16T06:59:19;0.00;0.00;0.00
73146;PMS7003;61345;48.922;2.244;2022-10-16T07:01:44;0.00;0.00;0.00
73146;PMS7003;61345;48.922;2.244;2022-10-16T07:04:10;0.50;0.00;0.00
73146;PMS7003;61345;48.922;2.244;2022-10-16T07:06:35;2.00;0.00;0.00
73146;PMS7003;61345;48.922;2.244;2022-10-16T07:09:01;0.00;0.00;0.00
73146;PMS7003;61345;48.922;2.244;2022-10-16T07:11:28;0.00;0.00;0.00
73146;PMS7003;61345;48.922;2.244;2022-10-16T07:13:53;0.00;0.00;0.00
73146;PMS7003;61345;48.922;2.244;2022-10-16T07:16:20;0.00;0.00;0.00
73146;PMS7003;61345;48.922;2.244;2022-10-16T07:18:50;0.00;0.00;0.00
73146;PMS7003;61345;48.922;2.244;2022-10-16T07:21:17;0.00;0.00;0.00
73146;PMS7003;61345;48.922;2.244;2022-10-16T07:23:49;1.00;0.00;0.00
73146;PMS7003;61345;48.922;2.244;2022-10-16T07:26:15;0.00;0.00;0.00
73146;PMS7003;61345;48.922;2.244;2022-10-16T07:28:41;0.00;0.00;0.00
73146;PMS7003;61345;48.922;2.244;2022-10-16T07:31:09;1.00;1.00;0.25
73146;PMS7003;61345;48.922;2.244;2022-10-16T07:33:36;0.25;0.25;0.25
73146;PMS7003;61345;48.922;2.244;2022-10-16T07:36:03;1.00;1.00;0.50
73146;PMS7003;61345;48.922;2.244;2022-10-16T07:38:31;0.00;0.00;0.00
73146;PMS7003;61345;48.922;2.244;2022-10-16T07:40:57;0.00;0.00;0.00
73146;PMS7003;61345;48.922;2.244;2022-10-16T07:43:26;0.50;0.50;0.00
73146;PMS7003;61345;48.922;2.244;2022-10-16T07:45:52;1.00;0.25;0.25
73146;PMS7003;61345;48.922;2.244;2022-10-16T07:48:18;0.75;0.00;0.00
73146;PMS7003;61345;48.922;2.244;2022-10-16T07:50:44;1.00;1.00;0.75
73146;PMS7003;61345;48.922;2.244;2022-10-16T07:53:10;0.00;0.00;0.00
73146;PMS7003;61345;48.922;2.244;2022-10-16T07:55:35;0.50;0.00;0.00
73146;PMS7003;61345;48.922;2.244;2022-10-16T07:58:01;2.00;1.00;0.75
73146;PMS7003;61345;48.922;2.244;2022-10-16T08:00:26;0.00;0.00;0.00
73146;PMS7003;61345;48.922;2.244;2022-10-16T08:02:52;1.75;1.00;1.00
73146;PMS7003;61345;48.922;2.244;2022-10-16T08:05:17;0.00;0.00;0.00
73146;PMS7003;61345;48.922;2.244;2022-10-16T08:07:42;1.00;1.00;1.00
73146;PMS7003;61345;48.922;2.244;2022-10-16T08:10:17;0.00;0.00;0.00
73146;PMS7003;61345;48.922;2.244;2022-10-16T08:12:44;1.00;0.25;0.00
73146;PMS7003;61345;48.922;2.244;2022-10-16T08:15:09;0.00;0.00;0.00
73146;PMS7003;61345;48.922;2.244;2022-10-16T08:17:35;1.75;0.00;0.00
73146;PMS7003;61345;48.922;2.244;2022-10-16T08:20:00;0.25;0.25;0.00
73146;PMS7003;61345;48.922;2.244;2022-10-16T08:22:26;0.00;0.00;0.00
73146;PMS7003;61345;48.922;2.244;2022-10-16T08:24:52;1.00;0.00;0.00
73146;PMS7003;61345;48.922;2.244;2022-10-16T08:27:17;0.00;0.00;0.00
73146;PMS7003;61345;48.922;2.244;2022-10-16T08:29:42;0.00;0.00;0.00
73146;PMS7003;61345;48.922;2.244;2022-10-16T08:32:07;0.00;0.00;0.00
73146;PMS7003;61345;48.922;2.244;2022-10-16T08:34:33;0.00;0.00;0.00
73146;PMS7003;61345;48.922;2.244;2022-10-16T08:36:58;2.00;2.00;2.00
73146;PMS7003;61345;48.922;2.244;2022-10-16T08:39:23;3.25;3.00;3.00
73146;PMS7003;61345;48.922;2.244;2022-10-16T08:50:40;2.50;1.00;1.00
73146;PMS7003;61345;48.922;2.244;2022-10-16T08:53:06;1.75;1.00;0.75
73146;PMS7003;61345;48.922;2.244;2022-10-16T08:58:17;5.00;3.00;2.75
73146;PMS7003;61345;48.922;2.244;2022-10-16T09:00:47;1.75;1.75;1.00
73146;PMS7003;61345;48.922;2.244;2022-10-16T09:03:19;1.00;1.00;1.00
73146;PMS7003;61345;48.922;2.244;2022-10-16T09:05:55;1.00;1.00;1.00
73146;PMS7003;61345;48.922;2.244;2022-10-16T09:08:27;1.00;1.00;1.00
73146;PMS7003;61345;48.922;2.244;2022-10-16T09:10:57;1.00;1.00;0.50
73146;PMS7003;61345;48.922;2.244;2022-10-16T09:13:32;1.75;1.75;1.75
73146;PMS7003;61345;48.922;2.244;2022-10-16T09:19:01;1.00;1.00;1.00
73146;PMS7003;61345;48.922;2.244;2022-10-16T09:21:34;2.50;1.75;1.00
73146;PMS7003;61345;48.922;2.244;2022-10-16T09:24:20;2.50;0.00;0.00
73146;PMS7003;61345;48.922;2.244;2022-10-16T09:26:47;2.00;2.00;2.00
73146;PMS7003;61345;48.922;2.244;2022-10-16T09:29:13;5.00;3.50;3.00
73146;PMS7003;61345;48.922;2.244;2022-10-16T09:31:39;4.00;1.25;1.00
73146;PMS7003;61345;48.922;2.244;2022-10-16T09:34:05;1.75;1.75;1.50
73146;PMS7003;61345;48.922;2.244;2022-10-16T09:36:39;2.75;2.50;2.00
73146;PMS7003;61345;48.922;2.244;2022-10-16T09:39:10;2.75;2.00;1.50
73146;PMS7003;61345;48.922;2.244;2022-10-16T09:41:37;2.00;2.00;1.50
73146;PMS7003;61345;48.922;2.244;2022-10-16T09:44:06;4.00;2.00;2.00
73146;PMS7003;61345;48.922;2.244;2022-10-16T09:47:25;2.50;2.50;2.00
73146;PMS7003;61345;48.922;2.244;2022-10-16T09:49:50;2.00;2.00;2.00
73146;PMS7003;61345;48.922;2.244;2022-10-16T09:52:20;1.25;1.00;1.00
73146;PMS7003;61345;48.922;2.244;2022-10-16T09:57:51;2.25;2.00;2.00
73146;PMS7003;61345;48.922;2.244;2022-10-16T10:00:17;2.50;1.00;1.00
73146;PMS7003;61345;48.922;2.244;2022-10-16T10:02:43;2.00;2.00;1.50
73146;PMS7003;61345;48.922;2.244;2022-10-16T10:05:20;3.75;3.00;2.75
73146;PMS7003;61345;48.922;2.244;2022-10-16T10:07:52;4.00;2.25;2.00
73146;PMS7003;61345;48.922;2.244;2022-10-16T10:10:21;4.00;1.75;1.50
73146;PMS7003;61345;48.922;2.244;2022-10-16T10:12:48;3.00;3.00;2.25
73146;PMS7003;61345;48.922;2.244;2022-10-16T10:15:14;3.00;3.00;3.00
73146;PMS7003;61345;48.922;2.244;2022-10-16T10:17:56;2.00;2.00;2.00
73146;PMS7003;61345;48.922;2.244;2022-10-16T10:20:40;3.00;2.00;1.50
73146;PMS7003;61345;48.922;2.244;2022-10-16T10:23:22;3.00;3.00;2.75
73146;PMS7003;61345;48.922;2.244;2022-10-16T10:31:03;3.00;2.00;2.00
73146;PMS7003;61345;48.922;2.244;2022-10-16T10:33:37;2.00;2.00;1.00
73146;PMS7003;61345;48.922;2.244;2022-10-16T10:36:22;3.50;3.00;2.25
73146;PMS7003;61345;48.922;2.244;2022-10-16T10:38:58;7.25;3.00;2.75
73146;PMS7003;61345;48.922;2.244;2022-10-16T10:51:54;5.75;3.00;2.00
73146;PMS7003;61345;48.922;2.244;2022-10-16T10:57:18;4.25;4.25;4.00
73146;PMS7003;61345;48.922;2.244;2022-10-16T11:00:03;3.25;3.00;3.00
73146;PMS7003;61345;48.922;2.244;2022-10-16T11:08:08;5.00;3.00;2.75
73146;PMS7003;61345;48.922;2.244;2022-10-16T11:10:40;2.00;2.00;1.00
73146;PMS7003;61345;48.922;2.244;2022-10-16T11:13:21;2.75;2.00;1.00
73146;PMS7003;61345;48.922;2.244;2022-10-16T11:15:51;3.75;2.50;2.00
73146;PMS7003;61345;48.922;2.244;2022-10-16T11:18:24;4.25;2.00;2.00
73146;PMS7003;61345;48.922;2.244;2022-10-16T11:21:12;3.50;2.00;1.25
73146;PMS7003;61345;48.922;2.244;2022-10-16T11:23:44;2.00;1.25;1.25
73146;PMS7003;61345;48.922;2.244;2022-10-16T11:26:21;1.00;1.00;1.00
73146;PMS7003;61345;48.922;2.244;2022-10-16T11:28:50;2.00;2.00;1.50
73146;PMS7003;61345;48.922;2.244;2022-10-16T11:31:26;3.00;1.50;1.00
73146;PMS7003;61345;48.922;2.244;2022-10-16T11:41:33;0.00;0.00;0.00
73146;PMS7003;61345;48.922;2.244;2022-10-16T11:46:29;1.00;1.00;0.50
73146;PMS7003;61345;48.922;2.244;2022-10-16T11:54:28;0.00;0.00;0.00
73146;PMS7003;61345;48.922;2.244;2022-10-16T11:56:59;0.00;0.00;0.00
73146;PMS7003;61345;48.922;2.244;2022-10-16T11:59:30;0.00;0.00;0.00
73146;PMS7003;61345;48.922;2.244;2022-10-16T12:04:49;1.00;0.00;0.00
73146;PMS7003;61345;48.922;2.244;2022-10-16T12:07:24;0.00;0.00;0.00
73146;PMS7003;61345;48.922;2.244;2022-10-16T12:09:52;0.00;0.00;0.00
73146;PMS7003;61345;48.922;2.244;2022-10-16T12:15:00;0.00;0.00;0.00
73146;PMS7003;61345;48.922;2.244;2022-10-16T12:17:44;0.00;0.00;0.00
73146;PMS7003;61345;48.922;2.244;2022-10-16T12:23:03;0.00;0.00;0.00
73146;PMS7003;61345;48.922;2.244;2022-10-16T12:25:34;1.00;1.00;1.00
73146;PMS7003;61345;48.922;2.244;2022-10-16T12:28:03;1.00;1.00;0.00
73146;PMS7003;61345;48.922;2.244;2022-10-16T12:30:31;2.25;2.25;1.75
73146;PMS7003;61345;48.922;2.244;2022-10-16T12:33:41;1.00;1.00;1.00
73146;PMS7003;61345;48.922;2.244;2022-10-16T12:35:48;4.00;3.00;2.75
73146;PMS7003;61345;48.922;2.244;2022-10-16T12:41:01;2.75;2.50;2.00
73146;PMS7003;61345;48.922;2.244;2022-10-16T12:46:04;2.50;2.00;1.75
73146;PMS7003;61345;48.922;2.244;2022-10-16T12:48:30;0.25;0.00;0.00
73146;PMS7003;61345;48.922;2.244;2022-10-16T12:50:56;0.00;0.00;0.00
73146;PMS7003;61345;48.922;2.244;2022-10-16T12:53:22;0.25;0.25;0.25
73146;PMS7003;61345;48.922;2.244;2022-10-16T12:58:34;1.00;1.00;0.75
73146;PMS7003;61345;48.922;2.244;2022-10-16T13:01:10;0.50;0.50;0.50
73146;PMS7003;61345;48.922;2.244;2022-10-16T13:04:17;0.00;0.00;0.00
73146;PMS7003;61345;48.922;2.244;2022-10-16T13:17:36;2.25;2.00;1.25
73146;PMS7003;61345;48.922;2.244;2022-10-16T13:20:22;1.75;0.50;0.50
73146;PMS7003;61345;48.922;2.244;2022-10-16T13:22:55;1.00;1.00;0.50
73146;PMS7003;61345;48.922;2.244;2022-10-16T13:28:07;1.00;1.00;0.75
73146;PMS7003;61345;48.922;2.244;2022-10-16T13:30:35;1.00;1.00;1.00
73146;PMS7003;61345;48.922;2.244;2022-10-16T13:33:12;2.75;2.00;2.00
73146;PMS7003;61345;48.922;2.244;2022-10-16T13:35:46;1.00;1.00;1.00
73146;PMS7003;61345;48.922;2.244;2022-10-16T13:38:16;2.00;1.00;1.00
73146;PMS7003;61345;48.922;2.244;2022-10-16T13:40:51;2.75;2.25;1.25
73146;PMS7003;61345;48.922;2.244;2022-10-16T13:43:37;2.00;1.00;0.50
73146;PMS7003;61345;48.922;2.244;2022-10-16T13:46:14;2.00;0.50;0.25
73146;PMS7003;61345;48.922;2.244;2022-10-16T13:48:56;1.00;1.00;1.00
73146;PMS7003;61345;48.922;2.244;2022-10-16T13:51:24;1.00;1.00;0.25
73146;PMS7003;61345;48.922;2.244;2022-10-16T13:53:50;2.25;1.50;1.00
73146;PMS7003;61345;48.922;2.244;2022-10-16T13:56:16;2.00;2.00;2.00
73146;PMS7003;61345;48.922;2.244;2022-10-16T13:58:44;2.00;2.00;2.00
73146;PMS7003;61345;48.922;2.244;2022-10-16T14:01:16;1.25;1.25;1.25
73146;PMS7003;61345;48.922;2.244;2022-10-16T14:03:44;2.00;2.00;2.00
73146;PMS7003;61345;48.922;2.244;2022-10-16T14:06:14;2.00;2.00;2.00
73146;PMS7003;61345;48.922;2.244;2022-10-16T14:08:43;2.00;2.00;2.00
73146;PMS7003;61345;48.922;2.244;2022-10-16T14:11:10;1.75;1.75;1.25
73146;PMS7003;61345;48.922;2.244;2022-10-16T14:13:42;3.00;1.50;1.00
73146;PMS7003;61345;48.922;2.244;2022-10-16T14:16:09;2.75;2.75;2.00
73146;PMS7003;61345;48.922;2.244;2022-10-16T14:18:41;3.00;3.00;2.25
73146;PMS7003;61345;48.922;2.244;2022-10-16T14:21:12;4.25;2.00;2.00
73146;PMS7003;61345;48.922;2.244;2022-10-16T14:23:39;2.25;2.00;2.00
73146;PMS7003;61345;48.922;2.244;2022-10-16T14:26:06;3.50;2.50;2.00
73146;PMS7003;61345;48.922;2.244;2022-10-16T14:28:38;1.50;1.50;1.25
73146;PMS7003;61345;48.922;2.244;2022-10-16T14:31:24;2.25;2.25;1.75
73146;PMS7003;61345;48.922;2.244;2022-10-16T14:33:57;2.75;1.75;1.75
73146;PMS7003;61345;48.922;2.244;2022-10-16T14:36:23;2.00;2.00;1.75
73146;PMS7003;61345;48.922;2.244;2022-10-16T14:41:27;2.75;2.75;2.50
73146;PMS7003;61345;48.922;2.244;2022-10-16T14:43:54;3.00;3.00;2.00
73146;PMS7003;61345;48.922;2.244;2022-10-16T14:46:22;3.00;2.00;2.00
73146;PMS7003;61345;48.922;2.244;2022-10-16T14:48:59;3.00;2.00;2.00
73146;PMS7003;61345;48.922;2.244;2022-10-16T14:51:27;1.75;1.00;1.00
73146;PMS7003;61345;48.922;2.244;2022-10-16T14:53:52;1.00;1.00;1.00
73146;PMS7003;61345;48.922;2.244;2022-10-16T14:56:24;2.75;1.75;1.75
73146;PMS7003;61345;48.922;2.244;2022-10-16T14:58:52;3.75;2.00;2.00
73146;PMS7003;61345;48.922;2.244;2022-10-16T15:01:18;4.75;3.00;2.75
73146;PMS7003;61345;48.922;2.244;2022-10-16T15:03:44;3.00;1.75;1.50
73146;PMS7003;61345;48.922;2.244;2022-10-16T15:06:13;3.75;2.25;2.25
73146;PMS7003;61345;48.922;2.244;2022-10-16T15:08:40;0.75;0.75;0.75
73146;PMS7003;61345;48.922;2.244;2022-10-16T15:11:07;2.25;2.00;1.75
73146;PMS7003;61345;48.922;2.244;2022-10-16T15:13:36;2.75;2.75;2.00
73146;PMS7003;61345;48.922;2.244;2022-10-16T15:16:02;3.75;3.25;2.50
73146;PMS7003;61345;48.922;2.244;2022-10-16T15:18:27;3.50;1.75;1.75
73146;PMS7003;61345;48.922;2.244;2022-10-16T15:20:53;2.75;2.75;2.75
73146;PMS7003;61345;48.922;2.244;2022-10-16T15:23:20;3.25;3.00;3.00
73146;PMS7003;61345;48.922;2.244;2022-10-16T15:25:53;4.75;3.75;2.00
73146;PMS7003;61345;48.922;2.244;2022-10-16T15:28:20;3.75;2.00;1.50
73146;PMS7003;61345;48.922;2.244;2022-10-16T15:30:46;2.00;2.00;1.75
73146;PMS7003;61345;48.922;2.244;2022-10-16T15:33:16;2.00;2.00;1.50
73146;PMS7003;61345;48.922;2.244;2022-10-16T15:35:42;2.50;2.50;2.50
73146;PMS7003;61345;48.922;2.244;2022-10-16T15:38:11;3.50;3.00;2.50
73146;PMS7003;61345;48.922;2.244;2022-10-16T15:40:37;3.75;3.75;3.00
73146;PMS7003;61345;48.922;2.244;2022-10-16T15:43:03;3.25;3.25;3.00
73146;PMS7003;61345;48.922;2.244;2022-10-16T15:45:29;3.25;3.25;3.00
73146;PMS7003;61345;48.922;2.244;2022-10-16T15:47:56;1.75;1.75;1.75
73146;PMS7003;61345;48.922;2.244;2022-10-16T15:50:22;4.25;3.00;2.00
73146;PMS7003;61345;48.922;2.244;2022-10-16T15:52:47;4.25;3.50;2.50
73146;PMS7003;61345;48.922;2.244;2022-10-16T15:55:15;3.25;2.50;2.50
73146;PMS7003;61345;48.922;2.244;2022-10-16T15:57:40;3.00;3.00;2.50
73146;PMS7003;61345;48.922;2.244;2022-10-16T16:00:08;4.25;4.25;2.75
73146;PMS7003;61345;48.922;2.244;2022-10-16T16:02:35;4.00;3.00;2.75
73146;PMS7003;61345;48.922;2.244;2022-10-16T16:05:00;5.75;4.25;3.75
73146;PMS7003;61345;48.922;2.244;2022-10-16T16:07:26;6.50;5.75;4.00
73146;PMS7003;61345;48.922;2.244;2022-10-16T16:09:52;7.75;4.75;4.00
73146;PMS7003;61345;48.922;2.244;2022-10-16T16:12:17;6.25;5.25;4.25